createdAt,value
2022-12-11T00:02:00.742Z,97924.00
2022-12-11T00:04:02.361Z,97922.97
2022-12-11T00:06:08.459Z,97919.44
2022-12-11T00:08:10.472Z,97920.47
2022-12-11T00:10:12.128Z,97928.13
2022-12-11T00:12:21.072Z,97925.44
2022-12-11T00:14:22.602Z,97925.88
2022-12-11T00:16:33.009Z,97934.44
2022-12-11T00:18:36.486Z,97927.38
2022-12-11T00:20:38.288Z,97935.03
2022-12-11T00:22:39.848Z,97929.63
2022-12-11T00:24:41.234Z,97940.44
2022-12-11T00:26:42.989Z,97934.22
2022-12-11T00:28:45.116Z,97939.84
2022-12-11T00:30:47.787Z,97929.94
2022-12-11T00:32:51.795Z,97934.50
2022-12-11T00:34:53.385Z,97928.66
2022-12-11T00:36:54.942Z,97930.53
2022-12-11T00:38:59.349Z,97929.94
2022-12-11T00:41:03.131Z,97936.59
2022-12-11T00:43:04.972Z,97935.19
2022-12-11T00:45:07.794Z,97943.28
2022-12-11T00:47:09.521Z,97947.84
2022-12-11T00:49:10.966Z,97952.19
2022-12-11T00:51:12.860Z,97948.66
2022-12-11T00:53:14.586Z,97947.84
2022-12-11T00:55:16.386Z,97946.19
2022-12-11T00:57:17.940Z,97939.53
2022-12-11T00:59:19.336Z,97936.84
2022-12-11T01:01:23.376Z,97940.56
2022-12-11T01:03:26.549Z,97952.38
2022-12-11T01:05:28.519Z,97955.09
2022-12-11T01:07:30.026Z,97956.16
2022-12-11T01:09:50.481Z,97958.84
2022-12-11T01:11:55.344Z,97960.47
2022-12-11T01:13:56.883Z,97966.94
2022-12-11T01:15:58.940Z,97963.41
2022-12-11T01:18:00.824Z,97969.03
2022-12-11T01:20:05.538Z,97972.34
2022-12-11T01:22:07.124Z,97966.69
2022-12-11T01:24:08.683Z,97968.56
2022-12-11T01:26:13.917Z,97967.78
2022-12-11T01:28:15.430Z,97962.38
2022-12-11T01:30:17.647Z,97968.56
2022-12-11T01:32:19.171Z,97970.22
2022-12-11T01:34:20.773Z,97966.69
2022-12-11T01:36:23.951Z,97970.22
2022-12-11T01:38:25.537Z,97965.66
2022-12-11T01:40:27.354Z,97959.44
2022-12-11T01:42:31.998Z,97965.66
2022-12-11T01:44:33.852Z,97961.91
2022-12-11T01:46:38.864Z,97953.00
2022-12-11T01:48:42.323Z,97965.44
2022-12-11T01:50:49.155Z,97964.00
2022-12-11T01:52:50.989Z,97958.41
2022-12-11T01:54:55.798Z,97955.72
2022-12-11T01:57:01.685Z,97955.47
2022-12-11T01:59:07.611Z,97955.72
2022-12-11T02:01:15.162Z,97953.47
2022-12-11T02:03:16.752Z,97952.38
2022-12-11T02:05:21.270Z,97947.00
2022-12-11T02:07:23.572Z,97952.38
2022-12-11T02:09:28.896Z,97953.47
2022-12-11T02:12:09.291Z,97953.06
2022-12-11T02:14:25.870Z,97959.53
2022-12-11T02:16:46.350Z,97958.69
2022-12-11T02:19:00.447Z,97959.06
2022-12-11T02:21:17.298Z,97966.34
2022-12-11T02:23:36.832Z,97967.38
2022-12-11T02:26:16.063Z,97969.47
2022-12-11T02:28:17.671Z,97969.25
2022-12-11T11:55:06.595Z,97838.16
2022-12-11T11:57:33.016Z,97840.66
2022-12-11T11:59:41.159Z,97831.50
2022-12-11T12:01:43.903Z,97832.91
2022-12-11T12:03:47.746Z,97841.84
2022-12-11T12:05:55.677Z,97842.41
2022-12-11T12:08:30.576Z,97838.22
2022-12-11T12:10:46.455Z,97834.41
2022-12-11T12:12:48.018Z,97835.34
2022-12-11T12:15:25.522Z,97836.53
2022-12-11T12:17:40.995Z,97835.50
2022-12-11T12:19:55.153Z,97837.69
2022-12-11T12:22:03.732Z,97831.66
2022-12-11T12:24:22.599Z,97824.34
2022-12-11T12:26:39.237Z,97829.28
2022-12-11T12:28:48.963Z,97824.25
2022-12-11T12:31:15.398Z,97822.97
2022-12-11T12:33:40.938Z,97821.91
2022-12-11T12:36:07.033Z,97824.59
2022-12-11T12:38:23.301Z,97821.44
2022-12-11T12:40:32.993Z,97813.72
2022-12-11T12:42:57.481Z,97810.78
2022-12-11T12:45:10.100Z,97808.09
2022-12-11T12:47:15.364Z,97802.81
2022-12-11T12:49:33.005Z,97808.59
2022-12-11T12:51:34.817Z,97802.72
2022-12-11T12:53:39.972Z,97803.06
2022-12-11T12:55:44.501Z,97799.91
2022-12-11T12:57:54.045Z,97795.91
2022-12-11T12:59:55.836Z,97803.75
2022-12-11T13:02:01.886Z,97798.38
2022-12-11T13:04:06.710Z,97805.78
2022-12-11T13:06:09.971Z,97806.38
2022-12-11T13:08:13.090Z,97806.94
2022-12-11T13:10:35.942Z,97808.94
2022-12-11T13:12:46.009Z,97813.88
2022-12-11T13:14:57.105Z,97805.19
2022-12-11T13:17:20.292Z,97809.53
2022-12-11T13:19:27.439Z,97802.84
2022-12-11T13:21:41.064Z,97810.16
2022-12-11T13:23:42.745Z,97803.66
2022-12-11T13:25:51.482Z,97794.72
2022-12-11T13:27:53.555Z,97792.03
2022-12-11T13:30:16.865Z,97795.22
2022-12-11T13:32:22.839Z,97797.69
2022-12-11T13:34:24.865Z,97801.44
2022-12-11T13:36:33.130Z,97796.28
2022-12-11T13:38:35.813Z,97799.22
2022-12-11T13:40:40.705Z,97800.25
2022-12-11T13:42:59.681Z,97804.50
2022-12-11T13:45:03.029Z,97800.38
2022-12-11T13:47:14.088Z,97812.22
2022-12-11T13:49:23.210Z,97808.13
2022-12-11T13:51:28.758Z,97808.38
2022-12-11T13:53:30.503Z,97807.53
2022-12-11T13:55:34.538Z,97813.41
2022-12-11T13:57:46.103Z,97820.09
2022-12-11T13:59:53.368Z,97817.63
2022-12-11T14:02:03.877Z,97814.56
2022-12-11T14:04:14.031Z,97816.44
2022-12-11T14:06:19.087Z,97815.84
2022-12-11T14:08:24.280Z,97819.00
2022-12-11T14:10:28.679Z,97823.25
2022-12-11T14:12:31.866Z,97822.66
2022-12-11T14:14:42.800Z,97830.13
2022-12-11T14:16:48.557Z,97824.75
2022-12-11T14:18:52.199Z,97831.22
2022-12-11T14:21:02.500Z,97827.91
2022-12-11T14:23:17.917Z,97834.59
2022-12-11T14:25:27.664Z,97837.50
2022-12-11T14:27:30.448Z,97837.50
2022-12-11T14:29:33.691Z,97835.88
2022-12-11T14:31:43.733Z,97832.56
2022-12-11T14:33:51.690Z,97837.97
2022-12-11T14:35:54.850Z,97835.28
2022-12-11T14:37:58.661Z,97830.94
2022-12-11T14:40:07.338Z,97832.22
2022-12-11T14:42:20.560Z,97831.84
2022-12-11T14:44:27.395Z,97838.06
2022-12-11T14:46:38.265Z,97834.56
2022-12-11T14:48:49.265Z,97833.72
2022-12-11T14:50:55.088Z,97837.50
2022-12-11T14:53:00.795Z,97846.16
2022-12-11T14:55:15.929Z,97840.41
2022-12-11T14:57:26.528Z,97836.91
2022-12-11T14:59:34.726Z,97831.50
2022-12-11T15:01:41.147Z,97841.47
2022-12-11T15:03:42.993Z,97842.50
2022-12-11T15:05:53.779Z,97850.59
2022-12-11T15:08:00.366Z,97851.88
2022-12-11T15:10:02.260Z,97846.50
2022-12-11T15:12:14.356Z,97851.06
2022-12-11T15:14:19.016Z,97861.06
2022-12-11T15:16:27.898Z,97856.09
2022-12-11T15:18:39.337Z,97857.97
2022-12-11T15:20:41.004Z,97860.44
2022-12-11T15:22:44.610Z,97851.31
2022-12-11T15:24:49.897Z,97854.44
2022-12-11T15:26:52.149Z,97855.53
2022-12-11T15:29:04.565Z,97853.84
2022-12-11T15:31:22.538Z,97855.72
2022-12-11T15:33:34.356Z,97860.28
2022-12-11T15:35:38.900Z,97863.22
2022-12-11T15:37:40.652Z,97863.22
2022-12-11T15:39:42.503Z,97853.47
2022-12-11T15:41:44.298Z,97853.72
2022-12-11T15:43:46.179Z,97861.81
2022-12-11T15:45:55.535Z,97862.06
2022-12-11T15:47:57.643Z,97862.06
2022-12-11T15:50:18.144Z,97862.25
2022-12-11T15:52:22.590Z,97871.44
2022-12-11T15:54:24.507Z,97870.59
2022-12-11T15:56:26.256Z,97875.16
2022-12-11T15:58:28.230Z,97875.41
2022-12-11T16:00:30.455Z,97878.31
2022-12-11T16:02:32.661Z,97877.47
2022-12-11T16:04:34.512Z,97878.53
2022-12-11T16:06:36.501Z,97871.28
2022-12-11T16:08:38.198Z,97873.16
2022-12-11T16:10:40.003Z,97874.19
2022-12-11T16:12:47.200Z,97881.69
2022-12-11T16:14:48.912Z,97884.63
2022-12-11T16:16:51.541Z,97884.38
2022-12-11T16:18:53.305Z,97890.38
2022-12-11T16:20:57.664Z,97881.09
2022-12-11T16:23:00.415Z,97878.41
2022-12-11T16:25:03.661Z,97874.63
2022-12-11T16:27:07.860Z,97876.53
2022-12-11T16:29:09.513Z,97877.56
2022-12-11T16:31:15.937Z,97883.22
2022-12-11T16:33:21.132Z,97883.22
2022-12-11T16:35:23.212Z,97884.25
2022-12-11T16:37:25.299Z,97883.41
2022-12-11T16:39:30.604Z,97885.91
2022-12-11T16:41:34.864Z,97878.03
2022-12-11T16:43:42.074Z,97889.63
2022-12-11T16:45:43.874Z,97882.38
2022-12-11T16:47:45.486Z,97878.84
2022-12-11T16:49:47.338Z,97878.25
2022-12-11T16:51:52.557Z,97870.16
2022-12-11T16:53:54.338Z,97880.97
2022-12-11T16:55:55.943Z,97880.97
2022-12-11T16:57:57.628Z,97876.59
2022-12-11T16:59:59.312Z,97882.81
2022-12-11T17:02:01.258Z,97882.81
2022-12-11T17:04:03.013Z,97880.13
2022-12-11T17:06:13.860Z,97878.72
2022-12-11T17:08:15.418Z,97882.81
2022-12-11T17:10:20.764Z,97884.69
2022-12-11T17:12:27.586Z,97881.16
2022-12-11T17:14:29.295Z,97884.94
2022-12-11T17:16:31.239Z,97879.16
2022-12-11T17:18:35.435Z,97880.22
2022-12-11T17:20:44.297Z,97879.97
2022-12-11T17:22:45.972Z,97881.63
2022-12-11T17:24:47.939Z,97879.41
2022-12-11T17:26:49.611Z,97879.41
2022-12-11T17:28:52.050Z,97875.88
2022-12-11T17:30:53.728Z,97880.66
2022-12-11T17:32:55.402Z,97880.88
2022-12-11T17:34:57.208Z,97880.88
2022-12-11T17:36:58.961Z,97884.41
2022-12-11T17:39:00.865Z,97880.66
2022-12-11T17:41:09.067Z,97881.50
2022-12-11T17:43:14.903Z,97878.81
2022-12-11T17:45:19.649Z,97882.69
2022-12-11T17:47:21.501Z,97891.75
2022-12-11T17:49:23.320Z,97890.03
2022-12-11T17:51:26.250Z,97885.22
2022-12-11T17:53:35.845Z,97894.94
2022-12-11T17:55:44.149Z,97893.50
2022-12-11T17:57:50.187Z,97897.28
2022-12-11T17:59:56.493Z,97894.00
2022-12-11T18:02:02.596Z,97898.75
2022-12-11T18:04:04.242Z,97897.34
2022-12-11T18:06:13.466Z,97898.63
2022-12-11T18:08:16.997Z,97892.44
2022-12-11T18:10:18.792Z,97898.03
2022-12-11T18:12:20.386Z,97901.78
2022-12-11T18:14:22.000Z,97898.25
2022-12-11T18:16:27.892Z,97894.75
2022-12-11T18:18:30.574Z,97901.78
2022-12-11T18:20:36.072Z,97898.47
2022-12-11T18:22:42.511Z,97896.00
2022-12-11T18:24:44.168Z,97899.53
2022-12-11T18:26:46.747Z,97893.06
2022-12-11T18:28:51.050Z,97902.22
2022-12-11T18:30:52.725Z,97900.13
2022-12-11T18:32:59.102Z,97903.41
2022-12-11T18:35:02.255Z,97898.84
2022-12-11T18:37:03.838Z,97897.19
2022-12-11T18:39:05.446Z,97889.94
2022-12-11T18:41:09.702Z,97898.03
2022-12-11T18:43:11.407Z,97895.31
2022-12-11T18:45:13.720Z,97892.63
2022-12-11T18:47:17.913Z,97900.72
2022-12-11T18:49:22.074Z,97887.25
2022-12-11T18:51:24.515Z,97887.47
2022-12-11T18:53:26.169Z,97892.88
2022-12-11T18:55:27.972Z,97888.50
2022-12-11T18:57:29.664Z,97882.28
2022-12-11T18:59:31.454Z,97894.75
2022-12-11T19:01:37.023Z,97886.88
2022-12-11T19:03:38.884Z,97888.50
2022-12-11T19:05:43.759Z,97893.91
2022-12-11T19:07:48.528Z,97889.34
2022-12-11T19:09:50.328Z,97893.91
2022-12-11T19:11:53.162Z,97896.59
2022-12-11T19:13:58.749Z,97886.88
2022-12-11T19:16:03.627Z,97894.97
2022-12-11T19:18:05.954Z,97895.78
2022-12-11T19:20:32.264Z,97890.38
2022-12-11T19:22:31.160Z,97880.66
2022-12-11T19:24:33.053Z,97888.50
2022-12-11T19:26:34.817Z,97887.47
2022-12-11T19:28:36.629Z,97889.34
2022-12-11T19:30:49.776Z,97887.47
2022-12-11T19:32:51.416Z,97882.91
2022-12-11T19:34:55.999Z,97887.25
2022-12-11T19:36:58.054Z,97888.91
2022-12-11T19:39:02.091Z,97893.47
2022-12-11T19:41:09.353Z,97890.78
2022-12-11T19:43:11.367Z,97887.84
2022-12-11T19:45:13.877Z,97895.91
2022-12-11T19:47:15.955Z,97893.47
2022-12-11T19:49:26.636Z,97888.91
2022-12-11T19:51:33.763Z,97888.06
2022-12-11T19:53:36.037Z,97888.31
2022-12-11T19:55:37.798Z,97895.31
2022-12-11T19:57:42.846Z,97897.44
2022-12-11T19:59:44.461Z,97900.97
2022-12-11T20:01:48.239Z,97894.75
2022-12-11T20:03:51.198Z,97899.09
2022-12-11T20:05:58.986Z,97898.25
2022-12-11T20:08:20.549Z,97897.19
2022-12-11T20:10:25.251Z,97901.78
2022-12-11T20:12:27.154Z,97901.78
2022-12-11T20:14:29.008Z,97902.81
2022-12-11T20:16:53.709Z,97905.28
2022-12-11T20:18:54.493Z,97900.72
2022-12-11T20:20:59.707Z,97899.69
2022-12-11T20:23:01.412Z,97902.38
2022-12-11T20:25:02.891Z,97909.41
2022-12-11T20:27:04.691Z,97911.91
2022-12-11T20:29:08.164Z,97911.06
2022-12-11T20:31:19.535Z,97910.47
2022-12-11T20:33:22.463Z,97908.59
2022-12-11T20:35:26.317Z,97905.53
2022-12-11T20:37:29.157Z,97899.91
2022-12-11T20:39:31.937Z,97902.38
2022-12-11T20:41:35.780Z,97900.53
2022-12-11T20:43:39.038Z,97909.19
2022-12-11T20:45:41.720Z,97902.16
2022-12-11T20:47:43.531Z,97903.81
2022-12-11T20:49:45.345Z,97895.13
2022-12-11T20:51:46.993Z,97903.81
2022-12-11T20:53:57.573Z,97902.16
2022-12-11T20:55:59.397Z,97896.53
2022-12-11T20:58:01.800Z,97903.56
2022-12-11T21:00:05.761Z,97898.41
2022-12-11T21:02:09.231Z,97901.09
2022-12-11T21:04:11.503Z,97898.41
2022-12-11T21:06:30.792Z,97900.28
2022-12-11T21:08:32.653Z,97899.25
2022-12-11T21:10:34.920Z,97902.97
2022-12-11T21:12:38.117Z,97900.53
2022-12-11T21:14:45.650Z,97897.59
2022-12-11T21:16:47.425Z,97894.28
2022-12-11T21:18:49.305Z,97888.91
2022-12-11T21:20:56.205Z,97885.38
2022-12-11T21:22:57.890Z,97888.06
2022-12-11T21:25:02.455Z,97886.41
2022-12-11T21:27:04.109Z,97890.53
2022-12-11T21:29:05.961Z,97890.78
2022-12-11T21:31:12.154Z,97894.28
2022-12-11T21:33:14.770Z,97888.91
2022-12-11T21:35:16.691Z,97890.78
2022-12-11T21:37:18.350Z,97889.34
2022-12-11T21:39:20.298Z,97890.19
2022-12-11T21:41:26.716Z,97890.19
2022-12-11T21:43:28.455Z,97886.06
2022-12-11T21:47:52.043Z,97886.06
2022-12-11T21:49:53.795Z,97887.69
2022-12-11T21:51:55.374Z,97883.38
2022-12-11T21:53:57.214Z,97889.78
2022-12-11T21:55:58.760Z,97887.34
2022-12-11T21:58:00.238Z,97890.03
2022-12-11T22:00:01.944Z,97883.81
2022-12-11T22:02:13.485Z,97885.91
2022-12-11T22:04:15.945Z,97885.91
2022-12-11T22:06:18.341Z,97889.66
2022-12-11T22:08:20.120Z,97885.31
2022-12-11T22:10:23.045Z,97879.94
2022-12-11T22:12:27.664Z,97876.59
2022-12-11T22:14:31.358Z,97885.31
2022-12-11T22:16:35.304Z,97885.53
2022-12-11T22:18:37.188Z,97878.28
2022-12-11T22:20:40.032Z,97888.00
2022-12-11T22:22:41.993Z,97890.91
2022-12-11T22:24:43.688Z,97885.53
2022-12-11T22:26:45.379Z,97889.50
2022-12-11T22:28:48.025Z,97885.75
2022-12-11T22:30:52.304Z,97894.88
2022-12-11T22:32:54.151Z,97889.28
2022-12-11T22:34:57.792Z,97896.53
2022-12-11T22:36:59.353Z,97890.09
2022-12-11T22:39:01.739Z,97895.72
2022-12-11T22:41:22.004Z,97894.88
2022-12-11T22:43:23.872Z,97898.19
2022-12-11T22:45:25.976Z,97900.06
2022-12-11T22:47:27.655Z,97900.88
2022-12-11T22:49:29.249Z,97897.38
2022-12-11T22:51:30.856Z,97896.53
2022-12-11T22:53:33.885Z,97891.38
2022-12-11T22:55:39.215Z,97899.25
2022-12-11T22:57:41.462Z,97902.97
2022-12-11T22:59:43.234Z,97903.22
2022-12-11T23:01:45.087Z,97903.22
2022-12-11T23:03:47.130Z,97909.44
2022-12-11T23:05:48.795Z,97909.63
2022-12-11T23:07:50.528Z,97907.78
2022-12-11T23:09:52.418Z,97908.81
2022-12-11T23:11:55.865Z,97911.50
2022-12-11T23:13:57.953Z,97911.50
2022-12-11T23:15:59.514Z,97909.03
2022-12-11T23:18:01.105Z,97913.59
2022-12-11T23:20:05.879Z,97905.75
2022-12-11T23:22:10.929Z,97914.03
2022-12-11T23:24:14.269Z,97912.41
2022-12-11T23:26:18.697Z,97911.59
2022-12-11T23:28:20.303Z,97908.66
2022-12-11T23:30:23.776Z,97912.41
2022-12-11T23:32:25.385Z,97911.59
2022-12-11T23:34:26.969Z,97907.22
2022-12-11T23:36:28.829Z,97909.09
2022-12-11T23:38:30.660Z,97908.28
2022-12-11T23:40:35.379Z,97915.56
2022-12-11T23:42:40.608Z,97916.59
2022-12-11T23:44:42.180Z,97912.84
2022-12-11T23:46:44.996Z,97908.28
2022-12-11T23:48:46.931Z,97917.41
2022-12-11T23:50:49.773Z,97912.84
2022-12-11T23:52:51.485Z,97914.97
2022-12-11T23:54:53.092Z,97916.81
2022-12-11T23:56:54.720Z,97916.00
2022-12-11T23:58:57.113Z,97908.75
